createdAt,value
2019-04-30T00:01:54.974Z,5.10
2019-04-30T00:04:29.589Z,5.10
2019-04-30T00:06:56.287Z,5.00
2019-04-30T00:09:25.628Z,5.00
2019-04-30T00:11:57.988Z,5.00
2019-04-30T00:14:25.040Z,5.00
2019-04-30T00:16:55.393Z,5.00
2019-04-30T00:19:25.957Z,4.90
2019-04-30T00:22:00.135Z,4.90
2019-04-30T00:24:25.999Z,4.80
2019-04-30T00:27:01.018Z,4.90
2019-04-30T00:29:31.018Z,4.80
2019-04-30T00:32:04.409Z,4.70
2019-04-30T00:34:30.933Z,4.70
2019-04-30T00:37:01.118Z,4.70
2019-04-30T00:39:29.933Z,4.70
2019-04-30T00:41:58.677Z,4.70
2019-04-30T00:44:28.494Z,4.70
2019-04-30T00:47:00.647Z,4.70
2019-04-30T00:49:27.908Z,4.70
2019-04-30T00:51:58.198Z,4.60
2019-04-30T00:54:30.673Z,4.60
2019-04-30T00:57:03.705Z,4.50
2019-04-30T00:59:29.033Z,4.40
2019-04-30T01:02:11.044Z,4.40
2019-04-30T01:04:44.998Z,4.20
2019-04-30T01:07:15.542Z,4.20
2019-04-30T01:09:49.872Z,4.20
2019-04-30T01:12:27.664Z,4.10
2019-04-30T01:14:49.797Z,4.10
2019-04-30T01:17:18.976Z,4.10
2019-04-30T01:19:51.059Z,4.10
2019-04-30T01:22:21.250Z,4.10
2019-04-30T01:24:49.778Z,4.10
2019-04-30T01:27:19.102Z,4.00
2019-04-30T01:29:48.709Z,4.00
2019-04-30T01:32:20.986Z,4.00
2019-04-30T01:34:52.213Z,4.00
2019-04-30T01:37:20.483Z,4.00
2019-04-30T01:39:49.296Z,3.90
2019-04-30T01:42:19.094Z,3.90
2019-04-30T01:44:52.488Z,3.80
2019-04-30T01:47:21.427Z,3.90
2019-04-30T01:49:49.599Z,3.90
2019-04-30T01:52:19.406Z,3.90
2019-04-30T01:54:49.050Z,3.90
2019-04-30T01:57:55.403Z,3.90
2019-04-30T02:00:32.761Z,4.00
2019-04-30T02:03:01.928Z,3.90
2019-04-30T02:05:30.696Z,3.90
2019-04-30T02:07:59.488Z,3.80
2019-04-30T02:10:28.618Z,3.80
2019-04-30T02:12:59.036Z,3.80
2019-04-30T02:15:29.212Z,3.70
2019-04-30T02:17:58.764Z,3.70
2019-04-30T02:20:28.730Z,3.60
2019-04-30T02:22:58.686Z,3.60
2019-04-30T02:25:29.574Z,3.50
2019-04-30T02:27:59.272Z,3.50
2019-04-30T02:30:30.894Z,3.50
2019-04-30T02:33:00.552Z,3.50
2019-04-30T02:35:54.620Z,3.50
2019-04-30T02:38:30.240Z,3.50
2019-04-30T02:40:59.849Z,3.50
2019-04-30T02:43:31.679Z,3.40
2019-04-30T02:46:01.578Z,3.40
2019-04-30T02:48:33.203Z,3.30
2019-04-30T02:51:03.936Z,3.30
2019-04-30T02:54:05.935Z,3.20
2019-04-30T02:56:34.664Z,3.20
2019-04-30T02:59:04.065Z,3.20
2019-04-30T03:01:32.967Z,3.10
2019-04-30T03:04:01.769Z,3.20
2019-04-30T03:06:30.703Z,3.10
2019-04-30T03:09:01.027Z,3.20
2019-04-30T03:11:30.438Z,3.10
2019-04-30T03:13:59.592Z,3.00
2019-04-30T03:16:36.893Z,3.00
2019-04-30T03:19:24.534Z,3.00
2019-04-30T03:22:00.213Z,3.00
2019-04-30T03:24:29.559Z,2.90
2019-04-30T03:26:59.433Z,2.90
2019-04-30T03:29:30.254Z,2.80
2019-04-30T03:32:02.692Z,2.70
2019-04-30T03:34:32.633Z,2.70
2019-04-30T03:37:02.129Z,2.70
2019-04-30T03:39:33.656Z,2.70
2019-04-30T03:42:00.911Z,2.70
2019-04-30T03:44:32.429Z,2.70
2019-04-30T03:47:00.249Z,2.60
2019-04-30T03:49:29.931Z,2.60
2019-04-30T03:51:59.793Z,2.60
2019-04-30T03:54:29.431Z,2.60
2019-04-30T03:57:00.850Z,2.60
2019-04-30T03:59:30.414Z,2.60
2019-04-30T04:02:06.088Z,2.60
2019-04-30T04:05:03.977Z,2.60
2019-04-30T04:07:41.538Z,2.60
2019-04-30T04:10:50.146Z,2.60
2019-04-30T04:13:19.736Z,2.70
2019-04-30T04:15:49.884Z,2.60
2019-04-30T04:18:20.253Z,2.60
2019-04-30T04:20:52.069Z,2.60
2019-04-30T04:23:19.695Z,2.60
2019-04-30T04:25:49.905Z,2.60
2019-04-30T04:28:20.273Z,2.70
2019-04-30T04:30:50.568Z,2.70
2019-04-30T04:33:20.065Z,2.70
2019-04-30T04:35:49.850Z,2.80
2019-04-30T04:38:20.481Z,2.80
2019-04-30T04:40:50.167Z,2.80
2019-04-30T04:43:20.158Z,2.80
2019-04-30T04:45:49.878Z,2.90
2019-04-30T04:48:19.918Z,3.00
2019-04-30T04:50:50.055Z,3.00
2019-04-30T04:53:19.568Z,3.10
2019-04-30T04:55:49.858Z,3.10
2019-04-30T04:58:21.710Z,3.30
2019-04-30T05:01:11.706Z,3.30
2019-04-30T05:03:40.070Z,3.40
2019-04-30T05:06:11.395Z,3.50
2019-04-30T05:08:39.707Z,3.50
2019-04-30T05:11:09.581Z,3.60
2019-04-30T05:13:38.910Z,3.70
2019-04-30T05:16:09.223Z,3.80
2019-04-30T05:18:39.116Z,3.90
2019-04-30T05:21:08.804Z,4.00
2019-04-30T05:23:39.583Z,4.10
2019-04-30T05:26:08.430Z,4.10
2019-04-30T05:28:39.369Z,4.20
2019-04-30T05:31:09.652Z,4.40
2019-04-30T05:33:39.082Z,4.50
2019-04-30T05:36:09.295Z,4.70
2019-04-30T05:38:39.152Z,4.80
2019-04-30T05:41:09.311Z,5.00
2019-04-30T05:43:38.728Z,5.10
2019-04-30T05:46:08.365Z,5.30
2019-04-30T05:48:39.604Z,5.40
2019-04-30T05:51:09.001Z,5.50
2019-04-30T05:53:39.336Z,5.50
2019-04-30T05:56:09.447Z,5.70
2019-04-30T05:58:39.762Z,5.80
2019-04-30T06:01:09.715Z,5.80
2019-04-30T06:03:38.773Z,6.00
2019-04-30T06:06:09.164Z,6.10
2019-04-30T06:08:49.096Z,6.20
2019-04-30T06:11:32.567Z,6.30
2019-04-30T06:14:19.174Z,6.40
2019-04-30T06:17:04.757Z,6.40
2019-04-30T06:19:33.635Z,6.50
2019-04-30T06:22:07.827Z,6.60
2019-04-30T06:24:32.999Z,6.70
2019-04-30T06:27:10.574Z,6.80
2019-04-30T06:29:39.144Z,6.90
2019-04-30T06:32:09.428Z,7.00
2019-04-30T06:34:41.614Z,7.20
2019-04-30T06:37:09.791Z,7.30
2019-04-30T06:39:38.921Z,7.40
2019-04-30T06:42:12.501Z,7.70
2019-04-30T06:44:41.366Z,7.80
2019-04-30T06:47:09.253Z,8.00
2019-04-30T06:49:39.261Z,8.20
2019-04-30T06:52:19.539Z,8.30
2019-04-30T06:54:39.708Z,8.50
2019-04-30T06:57:09.756Z,8.70
2019-04-30T06:59:39.765Z,8.80
2019-04-30T07:02:30.652Z,9.10
2019-04-30T07:04:58.808Z,9.50
2019-04-30T07:07:38.523Z,9.90
2019-04-30T07:10:10.128Z,10.30
2019-04-30T07:12:59.006Z,10.30
2019-04-30T07:15:29.627Z,10.70
2019-04-30T07:17:59.178Z,11.00
2019-04-30T07:20:29.147Z,11.40
2019-04-30T07:23:02.387Z,11.50
2019-04-30T07:25:29.309Z,11.50
2019-04-30T07:27:59.823Z,11.50
2019-04-30T07:30:30.779Z,12.10
2019-04-30T07:32:59.717Z,12.60
2019-04-30T07:35:29.245Z,12.50
2019-04-30T07:38:00.635Z,12.70
2019-04-30T07:40:29.249Z,12.50
2019-04-30T07:42:59.125Z,12.80
2019-04-30T07:45:31.691Z,13.30
2019-04-30T07:47:59.385Z,13.30
2019-04-30T07:50:51.410Z,13.40
2019-04-30T07:53:18.754Z,13.90
2019-04-30T07:55:49.382Z,13.90
2019-04-30T07:58:20.472Z,14.50
2019-04-30T08:00:50.363Z,14.30
2019-04-30T08:03:44.385Z,14.10
2019-04-30T08:06:14.495Z,14.10
2019-04-30T08:08:43.580Z,14.30
2019-04-30T08:11:23.055Z,15.10
2019-04-30T08:13:43.382Z,14.60
2019-04-30T08:16:12.818Z,15.30
2019-04-30T08:18:41.772Z,15.40
2019-04-30T08:21:10.445Z,16.00
2019-04-30T08:23:39.792Z,16.40
2019-04-30T08:26:08.943Z,16.50
2019-04-30T08:28:38.693Z,16.40
2019-04-30T08:31:09.009Z,16.60
2019-04-30T08:33:40.086Z,16.70
2019-04-30T08:36:09.463Z,17.30
2019-04-30T08:38:39.444Z,17.40
2019-04-30T08:41:09.376Z,16.70
2019-04-30T08:43:39.392Z,17.10
2019-04-30T08:46:09.392Z,17.30
2019-04-30T08:48:49.861Z,17.20
2019-04-30T08:51:09.970Z,17.20
2019-04-30T08:53:41.086Z,17.40
2019-04-30T08:56:10.190Z,17.70
2019-04-30T08:58:39.206Z,17.80
2019-04-30T09:01:08.747Z,18.20
2019-04-30T09:03:39.253Z,18.60
2019-04-30T09:06:15.821Z,18.60
2019-04-30T09:08:45.672Z,18.60
2019-04-30T09:11:24.671Z,18.50
2019-04-30T09:13:45.083Z,18.20
2019-04-30T09:16:13.970Z,18.50
2019-04-30T09:18:42.671Z,19.20
2019-04-30T09:21:11.443Z,19.40
2019-04-30T09:23:47.737Z,19.40
2019-04-30T09:26:10.806Z,19.70
2019-04-30T09:28:41.066Z,19.90
2019-04-30T09:31:10.263Z,20.10
2019-04-30T09:33:39.419Z,20.00
2019-04-30T09:36:09.140Z,19.70
2019-04-30T09:38:38.909Z,19.70
2019-04-30T09:41:09.366Z,19.70
2019-04-30T09:43:40.403Z,19.20
2019-04-30T09:46:18.999Z,19.10
2019-04-30T09:48:39.389Z,19.90
2019-04-30T09:51:10.801Z,20.30
2019-04-30T09:53:39.697Z,20.60
2019-04-30T09:56:09.584Z,20.70
2019-04-30T09:58:39.361Z,20.80
2019-04-30T10:01:09.445Z,21.30
2019-04-30T10:03:39.667Z,21.70
2019-04-30T10:06:09.165Z,22.00
2019-04-30T10:08:47.802Z,22.10
2019-04-30T10:11:17.551Z,21.70
2019-04-30T10:13:46.375Z,21.70
2019-04-30T10:16:22.124Z,21.80
2019-04-30T10:18:50.869Z,21.50
2019-04-30T10:21:19.635Z,21.00
2019-04-30T10:23:49.915Z,21.40
2019-04-30T10:26:19.234Z,21.70
2019-04-30T10:28:50.504Z,21.40
2019-04-30T10:31:20.940Z,21.70
2019-04-30T10:33:49.983Z,22.40
2019-04-30T10:36:19.387Z,21.60
2019-04-30T10:38:49.417Z,21.90
2019-04-30T10:41:18.912Z,22.30
2019-04-30T10:43:49.236Z,21.70
2019-04-30T10:46:18.370Z,22.30
2019-04-30T10:48:47.123Z,22.30
2019-04-30T10:51:15.878Z,22.90
2019-04-30T10:53:44.643Z,22.60
2019-04-30T10:56:14.267Z,23.10
2019-04-30T10:58:43.599Z,23.40
2019-04-30T11:01:12.440Z,23.50
2019-04-30T11:03:42.917Z,23.80
2019-04-30T11:06:11.906Z,23.50
2019-04-30T11:08:40.649Z,23.30
2019-04-30T11:11:09.539Z,23.10
2019-04-30T11:13:38.241Z,23.70
2019-04-30T11:16:14.651Z,23.70
2019-04-30T11:18:38.534Z,23.50
2019-04-30T11:21:09.485Z,23.80
2019-04-30T11:23:39.550Z,23.90
2019-04-30T11:26:09.190Z,24.00
2019-04-30T11:28:38.476Z,23.80
2019-04-30T11:31:25.388Z,23.40
2019-04-30T11:33:56.012Z,24.00
2019-04-30T11:36:24.934Z,23.80
2019-04-30T11:38:53.848Z,23.90
2019-04-30T11:41:32.437Z,23.50
2019-04-30T11:43:53.012Z,24.00
2019-04-30T11:46:55.088Z,24.20
2019-04-30T11:49:23.788Z,24.80
2019-04-30T11:51:52.479Z,25.00
2019-04-30T11:54:21.366Z,24.40
2019-04-30T11:56:50.520Z,23.70
2019-04-30T11:59:19.638Z,24.10
2019-04-30T12:01:50.589Z,24.50
2019-04-30T12:04:19.526Z,25.00
2019-04-30T12:06:48.252Z,24.70
2019-04-30T12:09:32.408Z,24.40
2019-04-30T12:12:01.116Z,24.80
2019-04-30T12:14:29.935Z,25.10
2019-04-30T12:16:59.147Z,25.20
2019-04-30T12:19:28.673Z,25.20
2019-04-30T12:21:57.579Z,25.00
2019-04-30T12:24:26.390Z,25.20
2019-04-30T12:26:55.394Z,24.80
2019-04-30T12:29:24.180Z,25.00
2019-04-30T12:31:53.012Z,25.40
2019-04-30T12:34:21.760Z,25.70
2019-04-30T12:36:50.442Z,25.40
2019-04-30T12:39:19.527Z,24.60
2019-04-30T12:41:48.875Z,24.70
2019-04-30T12:44:17.831Z,24.10
2019-04-30T12:46:48.947Z,24.50
2019-04-30T12:49:19.003Z,24.60
2019-04-30T12:51:55.949Z,24.80
2019-04-30T12:54:42.656Z,25.40
2019-04-30T12:57:21.856Z,25.80
2019-04-30T12:59:50.600Z,26.00
2019-04-30T13:02:19.465Z,25.80
2019-04-30T13:04:49.303Z,25.70
2019-04-30T13:07:20.603Z,24.70
2019-04-30T13:09:49.779Z,25.40
2019-04-30T13:12:19.474Z,25.60
2019-04-30T13:14:52.416Z,25.40
2019-04-30T13:17:18.953Z,24.60
2019-04-30T13:19:47.899Z,24.90
2019-04-30T13:22:18.887Z,25.20
2019-04-30T13:24:49.568Z,25.20
2019-04-30T13:27:19.573Z,25.20
2019-04-30T13:29:55.490Z,25.00
2019-04-30T13:32:30.039Z,25.20
2019-04-30T13:35:00.960Z,25.40
2019-04-30T13:37:41.624Z,24.90
2019-04-30T13:40:20.244Z,24.60
2019-04-30T13:42:50.131Z,24.40
2019-04-30T13:45:20.689Z,24.10
2019-04-30T13:47:49.559Z,24.50
2019-04-30T13:50:19.744Z,24.70
2019-04-30T13:52:49.106Z,24.50
2019-04-30T13:55:19.234Z,24.80
2019-04-30T13:57:48.268Z,24.20
2019-04-30T14:00:22.399Z,23.20
2019-04-30T14:03:00.561Z,23.30
2019-04-30T14:05:28.126Z,23.50
2019-04-30T14:08:12.645Z,23.40
2019-04-30T14:10:43.227Z,23.10
2019-04-30T14:13:12.167Z,23.10
2019-04-30T14:15:41.137Z,23.20
2019-04-30T14:18:09.832Z,22.80
2019-04-30T14:20:38.581Z,22.60
2019-04-30T14:23:08.544Z,22.60
2019-04-30T14:25:38.479Z,22.50
2019-04-30T14:28:08.959Z,22.60
2019-04-30T14:30:39.277Z,22.70
2019-04-30T14:33:09.415Z,23.20
2019-04-30T14:35:38.708Z,23.10
2019-04-30T14:38:09.045Z,22.50
2019-04-30T14:40:39.957Z,22.90
2019-04-30T14:43:30.870Z,22.70
2019-04-30T14:46:31.591Z,22.30
2019-04-30T14:49:14.844Z,21.80
2019-04-30T14:51:41.886Z,21.90
2019-04-30T14:54:15.667Z,22.30
2019-04-30T14:56:59.365Z,22.40
2019-04-30T14:59:46.270Z,22.10
2019-04-30T15:02:25.636Z,22.00
2019-04-30T15:04:54.375Z,22.10
2019-04-30T15:07:23.613Z,21.80
2019-04-30T15:09:53.454Z,21.50
2019-04-30T15:12:22.321Z,21.60
2019-04-30T15:14:51.188Z,21.10
2019-04-30T15:17:20.128Z,21.10
2019-04-30T15:19:54.258Z,21.10
2019-04-30T15:22:20.394Z,20.90
2019-04-30T15:24:49.287Z,20.80
2019-04-30T15:27:20.456Z,20.70
2019-04-30T15:29:57.004Z,20.60
2019-04-30T15:32:19.834Z,20.60
2019-04-30T15:34:49.130Z,20.40
2019-04-30T15:37:21.734Z,20.20
2019-04-30T15:39:49.005Z,20.00
2019-04-30T15:42:19.161Z,20.10
2019-04-30T15:44:49.658Z,20.10
2019-04-30T15:47:19.695Z,19.90
2019-04-30T15:49:49.322Z,19.70
2019-04-30T15:52:20.970Z,19.80
2019-04-30T15:54:49.794Z,19.60
2019-04-30T15:57:19.027Z,19.60
2019-04-30T15:59:48.120Z,19.60
2019-04-30T16:02:36.125Z,19.50
2019-04-30T16:05:12.027Z,19.20
2019-04-30T16:08:00.753Z,19.20
2019-04-30T16:10:51.569Z,19.20
2019-04-30T16:13:22.142Z,19.20
2019-04-30T16:15:50.986Z,19.00
2019-04-30T16:18:20.023Z,18.80
2019-04-30T16:20:49.890Z,18.50
2019-04-30T16:23:19.180Z,18.40
2019-04-30T16:25:48.306Z,18.40
2019-04-30T16:28:17.187Z,18.30
2019-04-30T16:30:46.266Z,18.00
2019-04-30T16:33:15.295Z,17.90
2019-04-30T16:35:44.627Z,17.60
2019-04-30T16:38:13.715Z,17.80
2019-04-30T16:40:42.515Z,17.60
2019-04-30T16:43:11.378Z,17.60
2019-04-30T16:45:40.649Z,17.50
2019-04-30T16:48:12.038Z,17.30
2019-04-30T16:50:43.263Z,17.20
2019-04-30T16:53:14.211Z,17.20
2019-04-30T16:55:43.333Z,17.20
2019-04-30T16:58:12.195Z,17.10
2019-04-30T17:00:42.742Z,17.10
2019-04-30T17:03:19.823Z,17.00
2019-04-30T17:05:54.027Z,17.10
2019-04-30T17:08:36.039Z,17.00
2019-04-30T17:11:30.800Z,16.90
2019-04-30T17:14:03.023Z,16.80
2019-04-30T17:16:32.266Z,16.60
2019-04-30T17:19:01.090Z,16.50
2019-04-30T17:21:30.358Z,16.30
2019-04-30T17:24:00.005Z,16.40
2019-04-30T17:26:28.963Z,16.30
2019-04-30T17:28:59.827Z,16.20
2019-04-30T17:31:36.710Z,16.30
2019-04-30T17:34:05.807Z,16.10
2019-04-30T17:36:34.993Z,15.90
2019-04-30T17:39:07.529Z,15.80
2019-04-30T17:41:36.574Z,15.80
2019-04-30T17:44:05.341Z,15.50
2019-04-30T17:46:34.106Z,15.50
2019-04-30T17:49:03.050Z,15.40
2019-04-30T17:51:31.839Z,15.20
2019-04-30T17:54:14.913Z,15.10
2019-04-30T17:56:45.239Z,14.80
2019-04-30T17:59:14.746Z,14.80
2019-04-30T18:01:49.506Z,14.50
2019-04-30T18:04:18.686Z,14.60
2019-04-30T18:06:50.652Z,14.70
2019-04-30T18:09:20.009Z,14.70
2019-04-30T18:11:49.568Z,14.50
2019-04-30T18:14:18.799Z,14.30
2019-04-30T18:16:48.642Z,14.10
2019-04-30T18:19:25.452Z,13.90
2019-04-30T18:22:02.012Z,13.80
2019-04-30T18:24:36.244Z,13.60
2019-04-30T18:27:16.210Z,13.50
2019-04-30T18:29:44.980Z,13.30
2019-04-30T18:32:14.088Z,13.30
2019-04-30T18:34:42.915Z,13.20
2019-04-30T18:37:11.652Z,13.00
2019-04-30T18:39:40.636Z,12.90
2019-04-30T18:42:11.071Z,12.70
2019-04-30T18:44:40.003Z,12.60
2019-04-30T18:47:09.089Z,12.50
2019-04-30T18:49:39.500Z,12.30
2019-04-30T18:52:09.076Z,12.20
2019-04-30T18:54:39.979Z,12.00
2019-04-30T18:57:08.861Z,11.80
2019-04-30T18:59:38.783Z,11.70
2019-04-30T19:02:10.026Z,11.50
2019-04-30T19:04:40.747Z,11.50
2019-04-30T19:07:26.730Z,11.30
2019-04-30T19:10:07.535Z,11.20
2019-04-30T19:12:59.083Z,11.20
2019-04-30T19:16:18.620Z,11.00
2019-04-30T19:18:38.151Z,10.90
2019-04-30T19:21:13.164Z,10.80
2019-04-30T19:23:43.732Z,10.70
2019-04-30T19:26:12.785Z,10.60
2019-04-30T19:28:41.775Z,10.50
2019-04-30T19:31:11.754Z,10.40
2019-04-30T19:33:41.288Z,10.30
2019-04-30T19:36:11.549Z,10.30
2019-04-30T19:38:42.755Z,10.20
2019-04-30T19:41:11.818Z,10.20
2019-04-30T19:43:42.032Z,10.00
2019-04-30T19:46:11.118Z,9.90
2019-04-30T19:48:42.427Z,9.80
2019-04-30T19:51:13.319Z,9.70
2019-04-30T19:53:43.321Z,9.70
2019-04-30T19:56:12.835Z,9.60
2019-04-30T19:58:54.330Z,9.50
2019-04-30T20:01:16.155Z,9.40
2019-04-30T20:03:45.543Z,9.40
2019-04-30T20:06:19.011Z,9.30
2019-04-30T20:08:47.665Z,9.30
2019-04-30T20:11:16.928Z,9.20
2019-04-30T20:13:45.862Z,9.30
2019-04-30T20:16:14.930Z,9.20
2019-04-30T20:18:43.820Z,9.10
2019-04-30T20:21:27.590Z,9.00
2019-04-30T20:23:47.572Z,8.90
2019-04-30T20:26:18.637Z,8.90
2019-04-30T20:28:48.749Z,8.80
2019-04-30T20:31:19.009Z,8.70
2019-04-30T20:33:48.932Z,8.70
2019-04-30T20:36:19.073Z,8.80
2019-04-30T20:39:25.486Z,8.80
2019-04-30T20:41:54.645Z,8.70
2019-04-30T20:44:23.535Z,8.70
2019-04-30T20:46:52.475Z,8.70
2019-04-30T20:49:21.210Z,8.70
2019-04-30T20:51:55.614Z,8.80
2019-04-30T20:54:20.737Z,8.80
2019-04-30T20:56:51.002Z,8.90
2019-04-30T20:59:20.545Z,8.90
2019-04-30T21:01:49.538Z,9.00
2019-04-30T21:04:20.769Z,9.00
2019-04-30T21:06:49.651Z,9.00
2019-04-30T21:09:18.664Z,9.10
2019-04-30T21:11:48.975Z,9.10
2019-04-30T21:14:19.178Z,9.20
2019-04-30T21:16:48.238Z,9.30
2019-04-30T21:19:17.120Z,9.30
2019-04-30T21:21:46.128Z,9.30
2019-04-30T21:24:15.049Z,9.30
2019-04-30T21:26:44.135Z,9.40
2019-04-30T21:29:15.664Z,9.50
2019-04-30T21:32:00.994Z,9.50
2019-04-30T21:34:46.687Z,9.50
2019-04-30T21:37:15.613Z,9.60
2019-04-30T21:39:44.384Z,9.90
2019-04-30T21:42:13.153Z,10.10
2019-04-30T21:44:44.373Z,10.10
2019-04-30T21:47:13.116Z,10.10
2019-04-30T21:49:42.470Z,10.00
2019-04-30T21:52:11.357Z,9.90
2019-04-30T21:54:40.146Z,9.90
2019-04-30T21:57:10.172Z,9.80
2019-04-30T21:59:39.056Z,9.70
2019-04-30T22:02:08.185Z,9.70
2019-04-30T22:04:36.953Z,9.70
2019-04-30T22:07:05.844Z,9.70
2019-04-30T22:09:34.566Z,9.70
2019-04-30T22:12:03.524Z,9.70
2019-04-30T22:14:32.304Z,9.70
2019-04-30T22:17:01.052Z,9.70
2019-04-30T22:19:29.838Z,9.70
2019-04-30T22:21:59.487Z,9.70
2019-04-30T22:24:30.379Z,9.70
2019-04-30T22:26:58.881Z,9.70
2019-04-30T22:29:38.790Z,9.70
2019-04-30T22:31:59.381Z,9.70
2019-04-30T22:34:28.776Z,9.70
2019-04-30T22:36:58.663Z,9.80
2019-04-30T22:39:46.743Z,9.80
2019-04-30T22:42:36.985Z,9.80
2019-04-30T22:45:13.869Z,9.80
2019-04-30T22:47:43.190Z,9.90
2019-04-30T22:50:12.692Z,9.90
2019-04-30T22:52:41.479Z,9.80
2019-04-30T22:55:10.527Z,9.80
2019-04-30T22:57:39.309Z,9.90
2019-04-30T23:00:11.489Z,9.90
2019-04-30T23:02:55.430Z,9.90
2019-04-30T23:05:24.199Z,10.00
2019-04-30T23:07:52.943Z,10.00
2019-04-30T23:10:21.954Z,10.00
2019-04-30T23:12:50.931Z,10.00
2019-04-30T23:15:21.145Z,10.00
2019-04-30T23:17:50.056Z,10.00
2019-04-30T23:20:18.839Z,10.10
2019-04-30T23:22:47.620Z,10.00
2019-04-30T23:25:16.529Z,10.00
2019-04-30T23:27:45.405Z,10.00
2019-04-30T23:30:14.591Z,10.00
2019-04-30T23:32:43.327Z,10.00
2019-04-30T23:35:12.406Z,10.00
2019-04-30T23:37:41.121Z,10.10
2019-04-30T23:40:27.584Z,10.10
2019-04-30T23:42:56.672Z,10.20
2019-04-30T23:45:25.567Z,10.20
2019-04-30T23:47:54.478Z,10.30
2019-04-30T23:50:23.628Z,10.20
2019-04-30T23:52:52.350Z,10.20
2019-04-30T23:55:21.282Z,10.20
2019-04-30T23:57:50.008Z,10.30
